Time;durP1;ratioP1;P1;durP2;ratioP2;P2;SDS_P1;SDS_P2;PMS_P1;PMS_P2;Temp;Humidity;BMP_temperature;BMP_pressure;BME280_temperature;BME280_humidity;BME280_pressure;Samples;Min_cycle;Max_cycle;Signal;HPM_P1;HPM_P2
2022/01/22 00:00:28;;;;;;;11.55;6.35;;;;;;;4.56;100.00;103501.94;5035646;28;20068;-74
2022/01/22 00:02:56;;;;;;;11.75;6.07;;;;;;;4.54;100.00;103495.72;5051207;28;20040;-77
2022/01/22 00:05:24;;;;;;;18.92;6.32;;;;;;;4.56;100.00;103502.84;5049804;28;20485;-78
2022/01/22 00:07:52;;;;;;;14.90;6.43;;;;;;;4.53;100.00;103501.84;5050148;28;20056;-77
2022/01/22 00:10:23;;;;;;;14.88;5.57;;;;;;;4.59;100.00;103502.06;5050035;28;20045;-77
2022/01/22 00:14:23;;;;;;;16.90;6.63;;;;;;;4.57;100.00;103496.72;5051994;28;20143;-78
2022/01/22 00:15:57;;;;;;;17.10;7.15;;;;;;;4.56;100.00;103494.00;5049061;28;20615;-78
2022/01/22 00:18:24;;;;;;;14.88;6.78;;;;;;;4.63;100.00;103488.09;5051129;28;20343;-77
2022/01/22 00:20:52;;;;;;;12.05;5.55;;;;;;;4.57;100.00;103478.22;5049878;28;20051;-77
2022/01/22 00:23:26;;;;;;;14.90;5.93;;;;;;;4.67;100.00;103477.69;5051331;28;20139;-77
2022/01/22 00:25:53;;;;;;;;;;;;;;;4.64;100.00;103477.56;5051279;28;20052;-75
2022/01/22 00:28:21;;;;;;;13.70;5.82;;;;;;;4.63;100.00;103477.50;5050988;28;19946;-77
2022/01/22 00:30:49;;;;;;;26.45;7.43;;;;;;;4.64;100.00;103474.91;5049978;28;20098;-77
2022/01/22 00:33:18;;;;;;;20.77;6.63;;;;;;;4.66;100.00;103485.56;5051554;28;20416;-77
2022/01/22 00:36:10;;;;;;;15.40;6.68;;;;;;;4.67;100.00;103472.38;5052743;28;20075;-76
2022/01/22 00:38:42;;;;;;;15.30;7.03;;;;;;;4.68;100.00;103471.56;5051690;28;20048;-76
2022/01/22 00:41:10;;;;;;;19.85;6.82;;;;;;;4.75;100.00;103471.75;5048969;28;20055;-76
2022/01/22 00:44:07;;;;;;;13.77;6.45;;;;;;;4.74;100.00;103470.84;5055276;28;20618;-73
2022/01/22 00:46:49;;;;;;;17.92;7.28;;;;;;;4.73;100.00;103470.81;5048321;28;20044;-77
2022/01/22 00:49:19;;;;;;;14.25;6.10;;;;;;;4.72;100.00;103471.66;5054501;28;20048;-76
2022/01/22 00:51:47;;;;;;;13.10;5.82;;;;;;;4.77;100.00;103470.06;5055939;28;20041;-76
2022/01/22 00:54:15;;;;;;;17.85;6.65;;;;;;;4.83;100.00;103465.84;5052932;28;20052;-76
2022/01/22 00:57:07;;;;;;;15.48;6.13;;;;;;;4.80;100.00;103467.50;5052225;28;20055;-77
2022/01/22 00:59:58;;;;;;;9.98;5.53;;;;;;;4.80;100.00;103465.78;5054829;28;20376;-77
2022/01/22 01:02:30;;;;;;;15.32;5.65;;;;;;;4.84;100.00;103464.13;5055015;28;20048;-76
2022/01/22 01:04:59;;;;;;;18.42;6.07;;;;;;;4.84;100.00;103457.09;5055239;28;20040;-76
2022/01/22 01:07:27;;;;;;;17.63;5.85;;;;;;;4.85;100.00;103457.97;5053098;28;20037;-76
2022/01/22 01:09:55;;;;;;;11.60;5.35;;;;;;;4.89;100.00;103470.47;5053311;28;20045;-77
2022/01/22 01:12:23;;;;;;;17.10;5.50;;;;;;;4.89;100.00;103466.91;5056183;28;20048;-77
2022/01/22 01:15:06;;;;;;;10.90;4.90;;;;;;;4.91;100.00;103473.19;5051784;28;20060;-76
2022/01/22 01:17:57;;;;;;;14.75;5.15;;;;;;;4.93;100.00;103464.44;5056218;28;20048;-77
2022/01/22 01:34:40;;;;;;;13.13;4.80;;;;;;;4.90;100.00;103455.50;5053532;28;20063;-77
2022/01/22 01:37:11;;;;;;;14.52;4.82;;;;;;;4.92;100.00;103459.09;5052012;28;20050;-77
2022/01/22 01:39:40;;;;;;;11.68;4.18;;;;;;;4.92;100.00;103460.00;5054213;28;20048;-77
2022/01/22 01:42:12;;;;;;;14.02;4.38;;;;;;;4.96;100.00;103468.94;5052562;28;20079;-77
2022/01/22 01:44:40;;;;;;;14.23;4.10;;;;;;;5.01;100.00;103475.28;5056377;28;20052;-78
2022/01/22 01:47:12;;;;;;;9.90;3.60;;;;;;;4.97;100.00;103476.00;5054752;28;20083;-78
2022/01/22 01:49:40;;;;;;;13.00;4.22;;;;;;;5.01;100.00;103470.00;5051576;28;20144;-78
2022/01/22 01:52:15;;;;;;;15.32;4.38;;;;;;;5.01;100.00;103473.53;5053027;28;20128;-77
2022/01/22 01:54:59;;;;;;;15.02;3.88;;;;;;;5.03;100.00;103470.94;5053787;28;20253;-77
2022/01/22 01:57:33;;;;;;;15.13;4.30;;;;;;;5.08;100.00;103474.63;5050741;28;20543;-77
2022/01/22 02:00:01;;;;;;;12.57;4.07;;;;;;;5.12;100.00;103471.22;5051621;28;20092;-76
2022/01/22 02:02:32;;;;;;;11.52;4.28;;;;;;;5.16;100.00;103474.88;5054497;28;20052;-77
2022/01/22 02:05:00;;;;;;;10.80;3.83;;;;;;;5.14;100.00;103473.91;5052778;28;20473;-77
2022/01/22 02:07:29;;;;;;;11.35;3.38;;;;;;;5.10;100.00;103466.75;5052735;28;20096;-77
2022/01/22 02:09:58;;;;;;;9.63;3.72;;;;;;;5.14;100.00;103480.13;5055621;28;20148;-77
2022/01/22 02:12:48;;;;;;;17.38;4.28;;;;;;;5.11;100.00;103472.09;5052456;28;20083;-77
2022/01/22 02:23:40;;;;;;;8.43;3.40;;;;;;;5.15;100.00;103473.97;5053789;28;20053;-78
2022/01/22 02:26:10;;;;;;;10.38;3.55;;;;;;;5.15;100.00;103473.09;5051968;28;20144;-77
2022/01/22 02:31:43;;;;;;;11.35;3.53;;;;;;;5.16;100.00;103465.19;5052361;28;20045;-77
2022/01/22 02:34:17;;;;;;;10.35;3.38;;;;;;;5.14;100.00;103458.97;5053071;28;20054;-77
2022/01/22 02:36:58;;;;;;;10.38;3.47;;;;;;;5.15;100.00;103466.03;5052873;28;20067;-77
2022/01/22 02:39:37;;;;;;;11.15;3.03;;;;;;;5.16;100.00;103459.91;5053946;28;20068;-77
2022/01/22 02:42:06;;;;;;;10.63;3.58;;;;;;;5.19;100.00;103465.31;5052132;28;20132;-77
2022/01/22 02:44:42;;;;;;;14.07;4.18;;;;;;;5.17;100.00;103461.69;5053360;28;20040;-76
2022/01/22 02:47:09;;;;;;;9.15;3.78;;;;;;;5.21;100.00;103471.53;5052267;28;20044;-77
2022/01/22 02:49:37;;;;;;;10.70;3.17;;;;;;;5.22;100.00;103452.13;5052111;28;20225;-76
2022/01/22 02:52:07;;;;;;;12.13;4.18;;;;;;;5.20;100.00;103474.13;5051384;28;20056;-77
2022/01/22 02:54:38;;;;;;;13.18;3.95;;;;;;;5.18;100.00;103462.59;5052785;28;20072;-77
2022/01/22 02:57:08;;;;;;;12.80;4.18;;;;;;;5.17;100.00;103463.44;5050982;28;20171;-76
2022/01/22 02:59:39;;;;;;;15.43;4.32;;;;;;;5.17;100.00;103463.44;5050616;28;20083;-77
2022/01/22 03:02:12;;;;;;;11.73;3.72;;;;;;;5.16;100.00;103465.19;5050743;28;20048;-76
2022/01/22 03:04:42;;;;;;;10.10;3.28;;;;;;;5.20;100.00;103463.53;5051183;28;20059;-77
2022/01/22 03:07:10;;;;;;;7.63;3.08;;;;;;;5.23;100.00;103458.34;5049386;28;20079;-77
2022/01/22 03:09:42;;;;;;;11.43;3.88;;;;;;;5.24;100.00;103457.47;5056510;28;20492;-78
2022/01/22 03:12:33;;;;;;;9.82;3.13;;;;;;;5.22;100.00;103465.38;5050551;28;20090;-77
2022/01/22 03:17:56;;;;;;;12.80;3.17;;;;;;;5.29;100.00;103469.13;5017052;28;20610;-76
2022/01/22 03:30:29;;;;;;;11.15;3.22;;;;;;;5.40;100.00;103474.78;5011334;28;20121;-72
2022/01/22 03:36:46;;;;;;;8.85;2.90;;;;;;;5.42;100.00;103473.06;5046602;28;20057;-72
2022/01/22 03:56:07;;;;;;;11.40;3.00;;;;;;;5.32;100.00;103471.88;5051871;28;20599;-76
2022/01/22 03:58:38;;;;;;;9.85;3.00;;;;;;;5.31;100.00;103479.75;5052775;28;20164;-78
2022/01/22 04:01:37;;;;;;;10.90;3.75;;;;;;;5.31;100.00;103479.75;5052365;28;20480;-78
2022/01/22 04:04:09;;;;;;;12.70;3.00;;;;;;;5.37;100.00;103477.31;5049757;28;20500;-75
2022/01/22 04:07:07;;;;;;;16.95;3.78;;;;;;;5.36;100.00;103475.50;5050898;28;20048;-75
2022/01/22 04:09:39;;;;;;;9.27;3.28;;;;;;;5.36;100.00;103478.16;5049782;28;20545;-76
2022/01/22 04:12:09;;;;;;;11.07;3.08;;;;;;;5.33;100.00;103464.81;5050460;28;20135;-77
2022/01/22 04:14:46;;;;;;;29.77;4.57;;;;;;;5.32;100.00;103482.47;5050532;28;20048;-77
2022/01/22 04:17:24;;;;;;;9.80;3.42;;;;;;;5.33;100.00;103488.66;5052669;28;20159;-77
2022/01/22 04:31:53;;;;;;;8.20;2.65;;;;;;;5.42;100.00;103481.91;5051689;28;20131;-76
2022/01/22 04:34:21;;;;;;;9.10;3.00;;;;;;;5.41;100.00;103497.72;5054878;28;20484;-77
2022/01/22 04:36:51;;;;;;;8.27;2.67;;;;;;;5.39;100.00;103487.09;5054932;28;20060;-77
2022/01/22 04:39:21;;;;;;;14.40;3.55;;;;;;;5.41;100.00;103488.06;5056130;28;20149;-77
2022/01/22 04:41:49;;;;;;;11.98;3.22;;;;;;;5.42;100.00;103481.91;5052303;28;20705;-77
2022/01/22 04:44:17;;;;;;;14.85;3.78;;;;;;;5.43;100.00;103483.72;5054662;28;20131;-77
2022/01/22 04:47:00;;;;;;;10.13;2.83;;;;;;;5.42;100.00;103484.53;5054090;28;20412;-77
2022/01/22 04:52:38;;;;;;;9.82;3.42;;;;;;;5.43;100.00;103469.53;4997205;28;20046;-76
2022/01/22 04:55:07;;;;;;;14.32;3.10;;;;;;;5.45;100.00;103473.16;5055023;28;20280;-76
2022/01/22 04:57:38;;;;;;;9.48;2.60;;;;;;;5.43;100.00;103469.53;5055169;28;20248;-77
2022/01/22 05:00:09;;;;;;;11.57;2.90;;;;;;;5.42;100.00;103479.25;5054042;28;20062;-77
2022/01/22 05:02:37;;;;;;;8.20;2.50;;;;;;;5.44;100.00;103474.00;5053282;28;20144;-76
2022/01/22 05:05:07;;;;;;;5.88;2.30;;;;;;;5.45;100.00;103477.53;5054796;28;20124;-77
2022/01/22 05:07:37;;;;;;;5.70;2.05;;;;;;;5.50;100.00;103473.28;5057953;28;20155;-77
2022/01/22 05:10:08;;;;;;;6.28;2.65;;;;;;;5.47;100.00;103471.47;5057660;28;20041;-76
2022/01/22 05:12:38;;;;;;;8.55;2.78;;;;;;;5.54;100.00;103475.19;5056667;28;20049;-76
2022/01/22 05:15:09;;;;;;;9.57;2.38;;;;;;;5.48;100.00;103469.69;5052773;28;20054;-77
2022/01/22 05:17:41;;;;;;;8.57;2.35;;;;;;;5.50;100.00;103466.25;5051734;28;20502;-77
2022/01/22 05:20:15;;;;;;;9.10;2.70;;;;;;;5.52;100.00;103461.00;5055875;28;20145;-76
2022/01/22 05:23:13;;;;;;;7.72;2.45;;;;;;;5.55;100.00;103474.31;5053701;28;20087;-77
2022/01/22 05:26:10;;;;;;;4.70;2.22;;;;;;;5.55;100.00;103475.25;5054658;28;20518;-76
2022/01/22 05:29:02;;;;;;;7.28;2.80;;;;;;;5.52;100.00;103471.59;5050413;28;20084;-77
2022/01/22 05:31:53;;;;;;;10.07;2.72;;;;;;;5.53;100.00;103463.69;5052989;28;20135;-77
2022/01/22 05:37:09;;;;;;;6.35;2.28;;;;;;;5.52;100.00;103469.84;5054780;28;20056;-77
2022/01/22 05:40:04;;;;;;;8.13;2.67;;;;;;;5.52;100.00;103464.56;5055307;28;20591;-77
2022/01/22 05:42:56;;;;;;;7.15;2.67;;;;;;;5.50;100.00;103468.91;5053877;28;20067;-78
2022/01/22 05:45:24;;;;;;;7.07;2.70;;;;;;;5.49;100.00;103464.44;5053564;28;20072;-75
2022/01/22 05:47:52;;;;;;;12.27;2.75;;;;;;;5.52;100.00;103475.16;5054693;28;20335;-78
2022/01/22 06:07:06;;;;;;;17.17;3.47;;;;;;;5.40;100.00;103488.00;5009270;28;20100;-77
2022/01/22 06:09:38;;;;;;;7.78;2.65;;;;;;;5.36;100.00;103494.97;5011020;28;20073;-78
2022/01/22 06:12:16;;;;;;;9.30;3.33;;;;;;;5.33;100.00;103486.91;5012326;28;20049;-77
2022/01/22 06:14:49;;;;;;;11.48;3.33;;;;;;;5.34;100.00;103495.75;5011824;28;20681;-77
2022/01/22 06:21:32;;;;;;;9.57;3.22;;;;;;;5.38;100.00;103492.34;5005375;28;20622;-74
2022/01/22 06:31:55;;;;;;;13.80;4.00;;;;;;;5.38;100.00;103502.94;4975654;28;20116;-74
2022/01/22 06:35:33;;;;;;;15.32;4.35;;;;;;;5.44;100.00;103505.78;4991047;28;20053;-73
2022/01/22 06:42:42;;;;;;;12.00;4.68;;;;;;;5.41;100.00;103509.25;5051072;28;20056;-73
2022/01/22 06:49:23;;;;;;;16.67;5.68;;;;;;;5.45;100.00;103518.19;5055067;28;20413;-73
2022/01/22 07:05:42;;;;;;;15.27;5.43;;;;;;;5.47;100.00;103523.53;5051888;28;20056;-76
2022/01/22 07:08:10;;;;;;;15.48;5.10;;;;;;;5.47;100.00;103523.53;5053955;28;20247;-78
2022/01/22 07:11:01;;;;;;;13.93;4.75;;;;;;;5.45;100.00;103523.50;5052247;28;20149;-75
2022/01/22 07:13:29;;;;;;;15.25;5.57;;;;;;;5.42;100.00;103524.28;5052153;28;20057;-76
2022/01/22 07:15:59;;;;;;;13.50;5.35;;;;;;;5.42;100.00;103523.38;5052492;28;20097;-78
2022/01/22 07:18:29;;;;;;;15.95;5.70;;;;;;;5.41;100.00;103526.88;5050351;28;20055;-78
2022/01/22 07:20:58;;;;;;;8.68;4.85;;;;;;;5.41;100.00;103530.44;5050391;28;20059;-75
2022/01/22 07:23:55;;;;;;;14.93;5.10;;;;;;;5.46;100.00;103538.50;5051225;28;20207;-76
2022/01/22 07:26:23;;;;;;;16.25;6.00;;;;;;;5.45;100.00;103530.50;5051719;28;20158;-76
2022/01/22 07:28:51;;;;;;;15.98;5.05;;;;;;;5.47;100.00;103529.72;5050953;28;20048;-76
2022/01/22 07:31:23;;;;;;;16.88;6.57;;;;;;;5.51;100.00;103517.47;5051810;28;20131;-78
2022/01/22 07:33:51;;;;;;;12.07;5.72;;;;;;;5.47;100.00;103513.84;5052733;28;20095;-75
2022/01/22 07:36:20;;;;;;;15.50;5.15;;;;;;;5.45;100.00;103512.91;5054273;28;20147;-78
2022/01/22 07:38:53;;;;;;;9.68;4.28;;;;;;;5.47;100.00;103518.25;5051955;28;20087;-79
2022/01/22 07:41:21;;;;;;;12.73;4.78;;;;;;;5.52;100.00;103520.16;5052837;28;20971;-79
2022/01/22 07:43:53;;;;;;;11.40;4.82;;;;;;;5.50;100.00;103513.94;5044311;28;20051;-78
2022/01/22 07:46:24;;;;;;;15.85;5.47;;;;;;;5.48;100.00;103514.72;5051968;28;20056;-78
2022/01/22 07:48:55;;;;;;;18.70;6.35;;;;;;;5.49;100.00;103511.22;5050044;28;20473;-77
2022/01/22 07:51:26;;;;;;;10.77;4.78;;;;;;;5.51;100.00;103514.81;5054057;28;20049;-77
2022/01/22 07:53:58;;;;;;;11.27;4.88;;;;;;;5.53;100.00;103508.72;5055685;28;20075;-77
2022/01/22 07:56:26;;;;;;;15.77;5.30;;;;;;;5.52;100.00;103520.16;5055015;28;20069;-78
2022/01/22 07:58:59;;;;;;;12.10;5.13;;;;;;;5.51;100.00;103507.78;5056285;28;20243;-78
2022/01/22 08:16:49;;;;;;;13.07;5.75;;;;;;;5.68;100.00;103491.50;5042721;28;20087;-74
2022/01/22 08:37:54;;;;;;;17.15;6.25;;;;;;;5.85;100.00;103519.41;4899938;28;20131;-73
2022/01/22 08:52:09;;;;;;;;;;;;;;;5.84;100.00;103529.97;4945348;28;20062;-74
2022/01/22 09:24:35;;;;;;;20.45;6.80;;;;;;;5.91;100.00;103554.06;4980934;28;20181;-72
2022/01/22 09:31:06;;;;;;;17.95;9.00;;;;;;;5.95;100.00;103563.00;4989654;28;20133;-78
2022/01/22 09:33:35;;;;;;;14.95;8.20;;;;;;;5.96;100.00;103559.53;4992312;28;20054;-78
2022/01/22 09:36:10;;;;;;;17.92;8.05;;;;;;;5.96;100.00;103557.78;4989467;28;20057;-78
2022/01/22 09:38:50;;;;;;;23.27;9.00;;;;;;;5.96;100.00;103563.09;4990637;28;20054;-72
2022/01/22 09:41:36;;;;;;;24.20;9.23;;;;;;;5.98;100.00;103565.78;4989035;28;20051;-72
2022/01/22 09:44:27;;;;;;;39.72;10.45;;;;;;;5.96;100.00;103568.38;4989723;28;20057;-73
2022/01/22 09:50:43;;;;;;;18.92;8.77;;;;;;;5.97;100.00;103583.41;5049448;28;20109;-73
2022/01/22 09:53:37;;;;;;;13.20;7.68;;;;;;;6.00;100.00;103587.94;5054721;28;20079;-72
2022/01/22 09:56:21;;;;;;;17.65;8.18;;;;;;;6.01;100.00;103592.41;5035191;28;20098;-72
2022/01/22 09:59:27;;;;;;;29.42;11.38;;;;;;;6.02;100.00;103593.28;5051399;28;20753;-72
2022/01/22 10:02:08;;;;;;;22.25;9.55;;;;;;;6.06;100.00;103580.19;5051780;28;20300;-69
2022/01/22 10:04:40;;;;;;;19.67;8.60;;;;;;;6.05;100.00;103578.38;5050036;28;20060;-71
2022/01/22 10:07:15;;;;;;;19.95;8.20;;;;;;;6.06;100.00;103585.47;5054075;28;20066;-75
2022/01/22 10:09:57;;;;;;;14.35;8.07;;;;;;;6.07;100.00;103595.22;5054740;28;20147;-75
2022/01/22 10:12:27;;;;;;;18.67;7.88;;;;;;;6.08;100.00;103597.03;5052550;28;20515;-76
2022/01/22 10:15:08;;;;;;;21.33;7.68;;;;;;;6.12;100.00;103590.94;5053157;28;20060;-78
2022/01/22 10:17:44;;;;;;;18.45;8.05;;;;;;;6.22;100.00;103588.59;5053963;28;20054;-78
2022/01/22 10:20:34;;;;;;;14.88;7.03;;;;;;;6.21;100.00;103594.72;5052666;28;20493;-78
2022/01/22 10:23:04;;;;;;;15.30;7.82;;;;;;;6.24;100.00;103592.19;5052876;28;20056;-76
2022/01/22 10:25:40;;;;;;;12.88;7.50;;;;;;;6.27;100.00;103589.63;5053282;28;20452;-76
2022/01/22 10:28:12;;;;;;;13.70;7.35;;;;;;;6.29;100.00;103585.25;5050607;28;20488;-76
2022/01/22 10:30:43;;;;;;;13.52;6.47;;;;;;;6.29;100.00;103594.09;5055195;28;20132;-76
2022/01/22 10:33:29;;;;;;;15.63;7.18;;;;;;;6.30;100.00;103609.19;5052809;28;20148;-76
2022/01/22 10:36:11;;;;;;;15.68;7.00;;;;;;;6.35;100.00;103604.00;5053640;28;20049;-76
2022/01/22 10:38:43;;;;;;;16.98;7.13;;;;;;;6.32;100.00;103599.50;5051904;28;20114;-77
2022/01/22 10:41:14;;;;;;;28.42;12.05;;;;;;;6.35;100.00;103601.34;5053071;28;20447;-77
2022/01/22 10:43:52;;;;;;;15.05;8.02;;;;;;;6.35;100.00;103598.69;5050193;28;20135;-76
2022/01/22 10:46:31;;;;;;;11.95;6.78;;;;;;;6.37;100.00;103597.00;5053573;28;20075;-76
2022/01/22 10:49:00;;;;;;;15.30;7.32;;;;;;;6.44;100.00;103588.34;5051817;28;20135;-77
2022/01/22 10:51:30;;;;;;;20.45;7.72;;;;;;;6.44;100.00;103587.47;5052634;28;20058;-77
2022/01/22 10:54:00;;;;;;;14.40;7.53;;;;;;;6.44;100.00;103591.00;5052305;28;20718;-76
2022/01/22 10:56:31;;;;;;;17.13;8.57;;;;;;;6.42;100.00;103594.47;5051277;28;20074;-77
2022/01/22 10:59:02;;;;;;;25.67;8.68;;;;;;;6.40;100.00;103585.56;5056414;28;20052;-77
2022/01/22 11:01:44;;;;;;;15.73;8.02;;;;;;;6.41;100.00;103584.72;5050559;28;20137;-77
2022/01/22 11:04:16;;;;;;;16.55;8.80;;;;;;;6.42;100.00;103599.75;5053886;28;20056;-79
2022/01/22 11:06:52;;;;;;;17.23;7.80;;;;;;;6.46;100.00;103596.38;5052955;28;20059;-77
2022/01/22 11:09:40;;;;;;;19.20;7.75;;;;;;;6.47;100.00;103599.06;5052675;28;21683;-76
2022/01/22 11:12:11;;;;;;;15.55;7.90;;;;;;;6.46;100.00;103594.59;5049970;28;20068;-76
2022/01/22 11:14:43;;;;;;;16.15;7.65;;;;;;;6.48;100.00;103589.34;5054910;28;20052;-71
2022/01/22 11:17:21;;;;;;;16.52;7.82;;;;;;;6.46;100.00;103576.03;4983849;28;20134;-71
2022/01/22 11:20:05;;;;;;;15.57;8.40;;;;;;;6.50;100.00;103569.97;5052560;28;20055;-71
2022/01/22 11:22:45;;;;;;;20.20;8.75;;;;;;;6.52;100.00;103583.25;5026354;28;20044;-71
2022/01/22 11:38:00;;;;;;;19.95;10.45;;;;;;;6.46;100.00;103594.59;5048075;28;20055;-71
2022/01/22 11:41:13;;;;;;;23.45;11.32;;;;;;;6.46;100.00;103607.88;5034522;28;20048;-71
2022/01/22 11:44:45;;;;;;;24.50;11.77;;;;;;;6.42;100.00;103616.59;5053182;28;20052;-71
2022/01/22 11:47:22;;;;;;;25.50;12.38;;;;;;;6.41;100.00;103606.84;5034822;28;20049;-77
2022/01/22 11:50:07;;;;;;;31.35;13.55;;;;;;;6.34;100.00;103597.78;5051736;28;20093;-77
2022/01/22 11:52:38;;;;;;;25.00;13.88;;;;;;;6.31;100.00;103595.03;5050547;28;20435;-76
2022/01/22 11:55:12;;;;;;;23.17;12.35;;;;;;;6.29;100.00;103595.88;5051150;28;20045;-77
2022/01/22 11:57:41;;;;;;;25.75;12.45;;;;;;;6.24;100.00;103601.03;5051946;28;20064;-76
2022/01/22 12:00:21;;;;;;;26.02;12.57;;;;;;;6.23;100.00;103603.63;5052873;28;20060;-76
2022/01/22 12:03:21;;;;;;;27.15;13.65;;;;;;;6.20;100.00;103587.63;5053527;28;20076;-76
2022/01/22 12:06:14;;;;;;;23.33;11.80;;;;;;;6.25;100.00;103592.22;5053781;28;20095;-77
2022/01/22 12:09:13;;;;;;;29.70;14.07;;;;;;;6.30;100.00;103595.00;5050918;28;20489;-77
2022/01/22 12:14:51;;;;;;;29.23;14.50;;;;;;;6.27;100.00;103595.81;5052190;28;20052;-77
2022/01/22 12:17:26;;;;;;;24.25;12.38;;;;;;;6.21;100.00;103589.44;5051071;28;20059;-77
2022/01/22 12:20:17;;;;;;;27.08;13.50;;;;;;;6.17;100.00;103591.97;5055279;28;20084;-77
2022/01/22 12:22:49;;;;;;;26.23;13.77;;;;;;;6.13;100.00;103583.88;5051269;28;20150;-77
2022/01/22 12:25:49;;;;;;;30.80;13.45;;;;;;;6.02;100.00;103583.56;5052967;28;20300;-77
2022/01/22 12:28:37;;;;;;;23.13;12.10;;;;;;;6.04;100.00;103594.22;5051296;28;20056;-77
2022/01/22 12:31:07;;;;;;;30.13;15.15;;;;;;;6.02;100.00;103590.63;5052955;28;20458;-77
2022/01/22 12:34:01;;;;;;;24.90;13.35;;;;;;;5.95;100.00;103598.34;5053386;28;20136;-77
2022/01/22 12:36:40;;;;;;;27.80;14.00;;;;;;;5.95;100.00;103600.09;5049104;28;20156;-77
2022/01/22 12:39:17;;;;;;;25.42;13.63;;;;;;;5.99;100.00;103596.72;5055210;28;20628;-77
2022/01/22 12:41:55;;;;;;;24.67;13.20;;;;;;;6.03;100.00;103584.47;5056439;28;20045;-77
2022/01/22 12:44:28;;;;;;;21.98;11.43;;;;;;;6.04;100.00;103588.91;5057414;28;20099;-77
2022/01/22 12:46:58;;;;;;;26.83;11.75;;;;;;;6.01;100.00;103589.75;5051951;28;20048;-77
2022/01/22 12:49:28;;;;;;;25.48;12.90;;;;;;;6.02;100.00;103586.22;5053917;28;20163;-77
2022/01/22 12:52:03;;;;;;;25.20;13.43;;;;;;;5.96;100.00;103592.25;5053035;28;20077;-77
2022/01/22 12:54:35;;;;;;;22.20;13.40;;;;;;;5.96;100.00;103594.88;5055816;28;20068;-77
2022/01/22 12:57:06;;;;;;;26.83;12.77;;;;;;;5.98;100.00;103587.88;5058485;28;20071;-77
2022/01/22 12:59:48;;;;;;;24.25;11.65;;;;;;;6.00;100.00;103587.03;5057007;28;20187;-78
2022/01/22 13:02:36;;;;;;;26.25;13.80;;;;;;;6.01;100.00;103592.41;5054299;28;20485;-79
2022/01/22 13:05:06;;;;;;;27.50;13.05;;;;;;;5.98;100.00;103589.66;5056745;28;20103;-79
2022/01/22 13:07:46;;;;;;;30.05;12.60;;;;;;;6.03;100.00;103603.00;5056008;28;20055;-77
2022/01/22 13:10:14;;;;;;;24.52;11.90;;;;;;;6.02;100.00;103591.53;5054808;28;20048;-79
2022/01/22 13:13:01;;;;;;;26.63;13.10;;;;;;;6.04;100.00;103594.22;5055612;28;20045;-72
2022/01/22 13:16:19;;;;;;;24.98;11.18;;;;;;;5.95;100.00;103603.66;5054553;28;20105;-73
2022/01/22 13:22:22;;;;;;;25.58;12.27;;;;;;;6.04;100.00;103604.81;5035688;28;20048;-71
2022/01/22 13:25:21;;;;;;;24.15;12.50;;;;;;;6.01;100.00;103603.00;5035844;28;20060;-71
2022/01/22 13:31:32;;;;;;;27.10;12.90;;;;;;;5.95;100.00;103594.81;5052039;28;20052;-72
2022/01/22 13:49:57;;;;;;;27.52;13.98;;;;;;;5.86;100.00;103618.38;5042025;28;20128;-72
2022/01/22 13:55:56;;;;;;;27.67;13.80;;;;;;;5.85;100.00;103603.31;5050906;28;20063;-72
2022/01/22 13:59:15;;;;;;;31.55;14.73;;;;;;;5.82;100.00;103611.16;5051172;28;20080;-72
2022/01/22 14:02:02;;;;;;;36.92;14.82;;;;;;;5.72;100.00;103608.25;5036807;28;20508;-77
2022/01/22 14:05:01;;;;;;;32.97;15.23;;;;;;;5.70;100.00;103601.06;5052119;28;20105;-77
2022/01/22 14:07:34;;;;;;;27.60;13.45;;;;;;;5.72;100.00;103600.28;5053543;28;20097;-72
2022/01/22 14:10:28;;;;;;;31.67;15.30;;;;;;;5.69;100.00;103612.53;5050842;28;20052;-72
2022/01/22 14:13:40;;;;;;;27.80;13.98;;;;;;;5.68;100.00;103608.06;5050753;28;20512;-73
2022/01/22 14:16:55;;;;;;;34.08;14.52;;;;;;;5.59;100.00;103612.22;5052389;28;20060;-71
2022/01/22 14:19:53;;;;;;;31.63;14.43;;;;;;;5.63;100.00;103601.72;5051726;28;20052;-71
2022/01/22 14:26:13;;;;;;;32.58;14.32;;;;;;;5.64;100.00;103601.78;5051935;28;20063;-71
2022/01/22 14:29:08;;;;;;;39.97;15.95;;;;;;;5.64;100.00;103599.13;5051412;28;20053;-72
2022/01/22 14:32:30;;;;;;;34.25;15.68;;;;;;;5.56;100.00;103598.88;5048521;28;20052;-71
2022/01/22 14:46:02;;;;;;;33.35;15.88;;;;;;;5.50;100.00;103574.84;5027453;28;20060;-73
2022/01/22 14:48:51;;;;;;;33.17;14.23;;;;;;;5.47;100.00;103572.09;5034894;28;20126;-73
2022/01/22 14:54:48;;;;;;;30.45;14.48;;;;;;;5.44;100.00;103561.41;5034576;28;20867;-71
2022/01/22 14:57:22;;;;;;;31.38;14.93;;;;;;;5.52;100.00;103566.97;5036854;28;20478;-78
2022/01/22 14:59:53;;;;;;;30.35;14.43;;;;;;;5.51;100.00;103568.69;5034909;28;20052;-77
2022/01/22 15:02:21;;;;;;;29.30;14.45;;;;;;;5.51;100.00;103567.78;5036804;28;20109;-77
2022/01/22 15:05:02;;;;;;;36.28;16.13;;;;;;;5.50;100.00;103568.63;5035559;28;20603;-73
2022/01/22 15:17:51;;;;;;;37.97;16.50;;;;;;;5.39;100.00;103558.59;5035363;28;20088;-74
2022/01/22 15:20:46;;;;;;;34.88;15.65;;;;;;;5.40;100.00;103559.50;5033950;28;20470;-74
2022/01/22 15:29:41;;;;;;;35.28;16.08;;;;;;;5.38;100.00;103571.78;5032209;28;20061;-74
2022/01/22 15:39:31;;;;;;;31.17;15.20;;;;;;;5.35;100.00;103575.25;5034430;28;20063;-73
2022/01/22 15:51:36;;;;;;;34.53;14.77;;;;;;;5.31;100.00;103569.78;5018084;28;20050;-72
2022/01/22 15:54:33;;;;;;;41.47;18.05;;;;;;;5.30;100.00;103579.47;5021353;28;20136;-72
2022/01/22 15:57:24;;;;;;;34.22;15.60;;;;;;;5.30;100.00;103578.59;5018777;28;20057;-72
2022/01/22 16:03:02;;;;;;;38.38;17.88;;;;;;;5.21;100.00;103585.38;5016941;28;20044;-77
2022/01/22 16:05:47;;;;;;;33.83;16.00;;;;;;;5.23;100.00;103588.97;5023606;28;20842;-72
2022/01/22 16:08:45;;;;;;;35.03;15.88;;;;;;;5.19;100.00;103587.06;5016576;28;20152;-72
2022/01/22 16:11:50;;;;;;;34.55;16.75;;;;;;;5.18;100.00;103587.91;5021066;28;20068;-72
2022/01/22 16:14:52;;;;;;;36.08;16.83;;;;;;;5.16;100.00;103589.59;5020453;28;20046;-72
2022/01/22 16:17:30;;;;;;;38.08;16.95;;;;;;;5.16;100.00;103596.63;5018661;28;20734;-72
2022/01/22 16:20:35;;;;;;;32.17;15.82;;;;;;;5.14;100.00;103595.69;5017264;28;20057;-72
2022/01/22 16:23:34;;;;;;;34.92;16.40;;;;;;;5.12;100.00;103589.44;5019708;28;20049;-72
2022/01/22 16:32:58;;;;;;;38.65;17.60;;;;;;;5.12;100.00;103592.97;5019537;28;20136;-72
2022/01/22 16:41:51;;;;;;;45.00;18.17;;;;;;;5.10;100.00;103605.28;5018660;28;20077;-78
2022/01/22 16:44:26;;;;;;;40.25;18.75;;;;;;;5.11;100.00;103599.13;5022086;28;20065;-78
2022/01/22 16:53:10;;;;;;;32.53;16.50;;;;;;;5.08;100.00;103600.78;5019305;28;20057;-78
2022/01/22 16:55:40;;;;;;;33.47;16.85;;;;;;;5.09;100.00;103592.91;5022647;28;20042;-77
2022/01/22 16:58:10;;;;;;;36.33;16.90;;;;;;;5.09;100.00;103597.28;5019923;28;20049;-78
2022/01/22 17:01:04;;;;;;;36.03;16.45;;;;;;;5.10;100.00;103593.78;5019963;28;20053;-78
2022/01/22 17:03:57;;;;;;;35.78;17.25;;;;;;;5.10;100.00;103597.31;5018400;28;20624;-78
2022/01/22 17:06:26;;;;;;;34.33;16.33;;;;;;;5.10;100.00;103596.44;5018771;28;20085;-78
2022/01/22 17:09:06;;;;;;;39.53;18.88;;;;;;;5.13;100.00;103592.16;5022309;28;20550;-78
2022/01/22 17:14:09;;;;;;;35.08;16.58;;;;;;;5.13;100.00;103596.56;5021166;28;20103;-78
2022/01/22 17:14:27;;;;;;;;;;;;;;;5.13;100.00;103609.78;5021022;28;20781;-78
2022/01/22 17:16:55;;;;;;;35.85;17.10;;;;;;;5.13;100.00;103602.72;5019492;28;19956;-78
2022/01/22 17:19:24;;;;;;;39.80;19.25;;;;;;;5.10;100.00;103614.97;5021666;28;20057;-78
2022/01/22 17:21:52;;;;;;;34.15;19.25;;;;;;;5.10;100.00;103620.25;5017627;28;20535;-78
2022/01/22 17:24:20;;;;;;;40.35;24.38;;;;;;;5.08;100.00;103624.59;5018485;28;20139;-78
2022/01/22 17:26:51;;;;;;;54.95;33.15;;;;;;;5.08;100.00;103625.50;5019008;28;20060;-78
2022/01/22 17:29:20;;;;;;;39.63;20.55;;;;;;;5.08;100.00;103629.91;5021000;28;20077;-78
2022/01/22 17:31:48;;;;;;;41.13;18.65;;;;;;;5.06;100.00;103627.19;5019016;28;20053;-78